createdAt,value
2022-12-19T00:01:36.614Z,102289.25
2022-12-19T00:04:08.144Z,102279.06
2022-12-19T00:06:37.945Z,102268.00
2022-12-19T00:09:10.986Z,102273.22
2022-12-19T00:11:38.969Z,102281.00
2022-12-19T00:14:06.668Z,102268.16
2022-12-19T00:16:33.963Z,102272.66
2022-12-19T00:19:01.873Z,102266.72
2022-12-19T00:21:31.207Z,102259.16
2022-12-19T00:24:03.091Z,102261.56
2022-12-19T00:26:31.912Z,102248.84
2022-12-19T00:29:00.817Z,102248.91
2022-12-19T00:31:29.192Z,102232.56
2022-12-19T00:33:56.551Z,102226.50
2022-12-19T00:36:25.354Z,102224.84
2022-12-19T00:38:53.904Z,102215.50
2022-12-19T00:41:26.661Z,102217.59
2022-12-19T00:44:01.851Z,102226.97
2022-12-19T00:46:30.840Z,102211.56
2022-12-19T00:48:58.047Z,102191.03
2022-12-19T00:51:33.603Z,102210.53
2022-12-19T00:54:00.941Z,102200.44
2022-12-19T00:56:37.916Z,102199.63
2022-12-19T00:59:05.974Z,102198.13
2022-12-19T01:01:36.281Z,102192.00
2022-12-19T01:06:52.813Z,102185.13
2022-12-19T01:09:21.739Z,102177.78
2022-12-19T01:12:07.802Z,102167.47
2022-12-19T01:14:35.583Z,102157.19
2022-12-19T01:17:02.817Z,102165.91
2022-12-19T01:19:31.391Z,102176.03
2022-12-19T01:21:58.794Z,102164.13
2022-12-19T01:24:26.256Z,102180.44
2022-12-19T01:26:53.521Z,102175.59
2022-12-19T01:29:20.938Z,102167.09
2022-12-19T01:31:48.216Z,102163.81
2022-12-19T01:34:15.478Z,102153.59
2022-12-19T01:36:42.693Z,102147.75
2022-12-19T01:39:09.994Z,102146.09
2022-12-19T01:41:38.156Z,102140.19
2022-12-19T01:44:07.307Z,102134.31
2022-12-19T01:46:41.773Z,102115.53
2022-12-19T01:49:16.249Z,102117.13
2022-12-19T01:51:47.071Z,102121.47
2022-12-19T01:54:27.135Z,102121.69
2022-12-19T01:56:56.206Z,102116.41
2022-12-19T01:59:27.519Z,102106.13
2022-12-19T02:01:58.649Z,102102.69
2022-12-19T02:04:32.009Z,102095.94
2022-12-19T02:07:08.117Z,102093.22
2022-12-19T02:09:45.675Z,102095.84
2022-12-19T02:12:12.941Z,102090.66
2022-12-19T02:14:40.688Z,102086.22
2022-12-19T02:17:21.922Z,102090.66
2022-12-19T02:20:08.194Z,102080.94
2022-12-19T02:23:06.245Z,102079.09
2022-12-19T02:25:51.908Z,102079.97
2022-12-19T02:28:51.706Z,102074.19
2022-12-19T02:31:25.232Z,102070.72
2022-12-19T02:34:10.539Z,102062.16
2022-12-19T02:36:42.044Z,102070.72
2022-12-19T02:39:35.259Z,102073.91
2022-12-19T02:42:03.492Z,102069.19
2022-12-19T02:44:40.762Z,102063.63
2022-12-19T02:47:09.093Z,102054.06
2022-12-19T02:49:37.758Z,102056.00
2022-12-19T02:52:19.969Z,102063.03
2022-12-19T02:54:52.258Z,102070.88
2022-12-19T02:57:28.221Z,102065.81
2022-12-19T03:00:18.190Z,102066.25
2022-12-19T03:03:00.739Z,102067.13
2022-12-19T03:06:06.334Z,102068.13
2022-12-19T03:08:57.439Z,102062.41
2022-12-19T03:11:25.248Z,102053.13
2022-12-19T03:13:56.702Z,102057.25
2022-12-19T03:16:24.499Z,102057.34
2022-12-19T03:18:55.754Z,102055.06
2022-12-19T03:21:39.495Z,102054.31
2022-12-19T03:24:08.430Z,102049.00
2022-12-19T03:26:43.764Z,102052.69
2022-12-19T03:29:30.678Z,102038.72
2022-12-19T03:31:59.849Z,102024.94
2022-12-19T03:34:47.436Z,102036.97
2022-12-19T03:37:17.415Z,102036.84
2022-12-19T03:39:48.303Z,102042.84
2022-12-19T03:42:35.822Z,102035.91
2022-12-19T03:45:05.383Z,102022.78
2022-12-19T03:47:39.080Z,102020.34
2022-12-19T03:50:06.846Z,102022.09
2022-12-19T03:52:52.895Z,102029.72
2022-12-19T03:55:32.305Z,102016.00
2022-12-19T03:58:19.344Z,102016.00
2022-12-19T04:00:48.041Z,102015.94
2022-12-19T04:03:17.541Z,102010.84
2022-12-19T04:05:47.067Z,102015.94
2022-12-19T04:08:14.411Z,102009.97
2022-12-19T04:10:54.193Z,102007.25
2022-12-19T04:13:30.129Z,102014.25
2022-12-19T04:16:18.812Z,102018.50
2022-12-19T04:18:51.378Z,102006.44
2022-12-19T04:21:25.339Z,102008.97
2022-12-19T04:23:57.693Z,102014.78
2022-12-19T04:26:25.345Z,102026.00
2022-12-19T04:28:56.146Z,102027.78
2022-12-19T04:31:23.939Z,102030.41
2022-12-19T04:33:51.369Z,102029.81
2022-12-19T04:36:18.616Z,102030.63
2022-12-19T04:38:45.824Z,102014.28
2022-12-19T04:41:13.169Z,102009.00
2022-12-19T04:43:40.386Z,102012.50
2022-12-19T04:46:07.664Z,102000.66
2022-12-19T04:48:36.559Z,102008.69
2022-12-19T04:51:04.234Z,102009.94
2022-12-19T04:53:32.389Z,101995.31
2022-12-19T04:56:06.906Z,101998.00
2022-12-19T04:58:34.729Z,101988.81
2022-12-19T05:01:03.287Z,101993.97
2022-12-19T05:03:30.574Z,101986.31
2022-12-19T05:06:08.905Z,101988.22
2022-12-19T05:08:37.223Z,101983.97
2022-12-19T05:11:05.785Z,101987.53
2022-12-19T05:13:33.148Z,101989.50
2022-12-19T05:16:05.853Z,101999.97
2022-12-19T05:18:33.637Z,101995.94
2022-12-19T05:21:00.991Z,101995.28
2022-12-19T05:23:28.537Z,101992.84
2022-12-19T05:25:58.402Z,101989.63
2022-12-19T05:28:25.653Z,101990.41
2022-12-19T05:30:52.876Z,101986.47
2022-12-19T05:33:20.211Z,101975.56
2022-12-19T05:35:49.409Z,101976.50
2022-12-19T05:38:16.658Z,101974.78
2022-12-19T05:40:43.913Z,101975.44
2022-12-19T05:43:11.139Z,101967.78
2022-12-19T05:45:40.034Z,101961.88
2022-12-19T05:48:07.272Z,101959.56
2022-12-19T05:50:36.747Z,101968.28
2022-12-19T05:53:03.940Z,101959.75
2022-12-19T05:55:31.155Z,101951.22
2022-12-19T05:57:58.368Z,101951.34
2022-12-19T06:00:25.706Z,101947.06
2022-12-19T06:02:53.339Z,101949.78
2022-12-19T06:05:20.707Z,101944.75
2022-12-19T06:07:48.003Z,101932.94
2022-12-19T06:10:15.249Z,101933.75
2022-12-19T06:12:42.467Z,101922.59
2022-12-19T06:15:10.461Z,101915.78
2022-12-19T06:17:40.311Z,101909.88
2022-12-19T06:20:08.094Z,101908.41
2022-12-19T06:22:35.281Z,101896.41
2022-12-19T06:25:02.857Z,101904.16
2022-12-19T06:27:30.706Z,101906.69
2022-12-19T06:29:57.889Z,101910.06
2022-12-19T06:32:25.168Z,101900.69
2022-12-19T06:35:07.662Z,101910.25
2022-12-19T06:37:38.928Z,101902.69
2022-12-19T06:40:07.311Z,101896.97
2022-12-19T06:42:34.523Z,101890.28
2022-12-19T06:45:01.898Z,101905.81
2022-12-19T06:47:29.124Z,101896.38
2022-12-19T06:49:56.364Z,101892.84
2022-12-19T06:52:23.625Z,101896.50
2022-12-19T06:54:52.896Z,101890.53
2022-12-19T06:57:20.109Z,101901.69
2022-12-19T06:59:47.453Z,101900.94
2022-12-19T07:02:24.614Z,101909.78
2022-12-19T07:04:58.059Z,101920.97
2022-12-19T07:07:25.265Z,101918.63
2022-12-19T07:09:53.710Z,101916.00
2022-12-19T07:12:20.936Z,101911.97
2022-12-19T07:14:53.152Z,101917.16
2022-12-19T07:17:21.744Z,101912.91
2022-12-19T07:19:51.829Z,101901.91
2022-12-19T07:22:19.218Z,101906.28
2022-12-19T07:24:46.601Z,101907.16
2022-12-19T07:27:15.060Z,101903.81
2022-12-19T07:29:42.442Z,101908.13
2022-12-19T07:32:09.729Z,101903.09
2022-12-19T07:34:36.964Z,101901.34
2022-12-19T07:37:04.178Z,101905.59
2022-12-19T07:39:31.440Z,101903.94
2022-12-19T07:41:58.840Z,101902.38
2022-12-19T07:44:26.017Z,101908.63
2022-12-19T07:46:53.170Z,101894.16
2022-12-19T07:49:22.791Z,101888.31
2022-12-19T07:51:50.217Z,101885.75
2022-12-19T07:54:17.456Z,101887.59
2022-12-19T07:56:44.717Z,101883.41
2022-12-19T07:59:13.167Z,101879.44
2022-12-19T08:01:40.828Z,101888.28
2022-12-19T08:04:08.393Z,101888.50
2022-12-19T08:06:41.002Z,101882.56
2022-12-19T08:09:08.843Z,101887.72
2022-12-19T08:11:36.051Z,101884.41
2022-12-19T08:14:03.241Z,101877.84
2022-12-19T08:16:30.811Z,101874.34
2022-12-19T08:18:58.253Z,101871.09
2022-12-19T08:21:25.748Z,101873.84
2022-12-19T08:23:53.202Z,101859.28
2022-12-19T08:26:25.365Z,101858.56
2022-12-19T08:28:57.093Z,101859.34
2022-12-19T08:31:26.544Z,101852.56
2022-12-19T08:33:55.399Z,101850.22
2022-12-19T08:36:23.080Z,101845.13
2022-12-19T08:38:50.896Z,101845.22
2022-12-19T08:41:18.771Z,101840.28
2022-12-19T08:43:53.557Z,101837.78
2022-12-19T08:46:21.652Z,101831.00
2022-12-19T08:48:49.222Z,101825.97
2022-12-19T08:51:17.336Z,101831.28
2022-12-19T08:53:46.255Z,101821.88
2022-12-19T08:56:14.828Z,101821.09
2022-12-19T08:58:42.367Z,101817.78
2022-12-19T09:01:13.913Z,101809.22
2022-12-19T09:04:00.580Z,101812.78
2022-12-19T09:06:29.838Z,101809.81
2022-12-19T09:09:00.205Z,101808.09
2022-12-19T09:11:28.355Z,101805.81
2022-12-19T09:13:57.093Z,101823.13
2022-12-19T09:16:25.988Z,101806.94
2022-12-19T09:18:54.862Z,101804.50
2022-12-19T09:21:23.650Z,101792.91
2022-12-19T09:23:52.977Z,101792.66
2022-12-19T09:26:20.589Z,101795.47
2022-12-19T09:28:49.885Z,101792.22
2022-12-19T09:31:20.035Z,101795.78
2022-12-19T09:33:47.745Z,101790.88
2022-12-19T09:36:16.923Z,101780.53
2022-12-19T09:38:44.312Z,101770.25
2022-12-19T09:41:20.725Z,101766.13
2022-12-19T09:44:09.409Z,101756.78
2022-12-19T09:46:52.738Z,101749.97
2022-12-19T09:49:26.253Z,101750.03
2022-12-19T09:52:33.363Z,101739.94
2022-12-19T09:55:17.419Z,101724.56
2022-12-19T09:58:06.231Z,101732.53
2022-12-19T10:00:45.679Z,101729.13
2022-12-19T10:03:20.053Z,101728.34
2022-12-19T10:06:29.485Z,101719.03
2022-12-19T10:09:03.095Z,101713.94
2022-12-19T10:12:43.863Z,101718.34
2022-12-19T10:14:48.114Z,101702.88
2022-12-19T10:17:51.486Z,101698.78
2022-12-19T10:20:34.211Z,101696.19
2022-12-19T10:23:42.665Z,101694.59
2022-12-19T10:26:21.448Z,101701.44
2022-12-19T10:29:17.088Z,101687.75
2022-12-19T10:31:58.651Z,101676.59
2022-12-19T10:34:40.755Z,101663.72
2022-12-19T10:37:36.803Z,101658.53
2022-12-19T10:40:13.220Z,101667.16
2022-12-19T10:43:32.123Z,101661.97
2022-12-19T10:46:02.915Z,101660.13
2022-12-19T10:48:31.534Z,101668.91
2022-12-19T10:51:05.203Z,101654.28
2022-12-19T10:53:34.271Z,101646.56
2022-12-19T10:56:11.485Z,101633.69
2022-12-19T10:58:43.329Z,101651.84
2022-12-19T11:01:17.653Z,101634.69
2022-12-19T11:03:51.268Z,101621.78
2022-12-19T11:06:46.363Z,101621.00
2022-12-19T11:09:40.299Z,101627.91
2022-12-19T11:16:42.854Z,101620.03
2022-12-19T11:22:13.168Z,101617.59
2022-12-19T11:24:29.998Z,101606.19
2022-12-19T11:29:25.475Z,101611.41
2022-12-19T11:30:05.879Z,101591.44
2022-12-19T11:30:48.370Z,101606.25
2022-12-19T11:32:45.783Z,101598.53
2022-12-19T11:35:24.914Z,101609.75
2022-12-19T11:37:58.918Z,101599.38
2022-12-19T11:40:33.499Z,101599.31
2022-12-19T11:43:42.499Z,101598.47
2022-12-19T11:46:22.056Z,101582.88
2022-12-19T11:48:57.197Z,101588.09
2022-12-19T11:51:45.215Z,101576.06
2022-12-19T11:54:23.280Z,101576.91
2022-12-19T11:56:51.237Z,101580.38
2022-12-19T11:59:40.166Z,101581.28
2022-12-19T12:02:38.255Z,101572.63
2022-12-19T12:05:58.409Z,101563.03
2022-12-19T12:10:51.098Z,101553.53
2022-12-19T12:19:02.552Z,101562.97
2022-12-19T12:25:48.658Z,101568.06
2022-12-19T12:26:41.310Z,101558.69
2022-12-19T12:31:21.672Z,101556.13
2022-12-19T12:31:23.673Z,101553.50
2022-12-19T12:31:49.077Z,101548.38
2022-12-19T12:32:04.006Z,101544.84
2022-12-19T12:35:38.193Z,101539.88
2022-12-19T12:38:44.483Z,101547.78
2022-12-19T12:41:14.781Z,101548.66
2022-12-19T12:43:49.144Z,101536.66
2022-12-19T12:46:22.046Z,101539.34
2022-12-19T12:49:04.672Z,101533.09
2022-12-19T12:51:33.297Z,101529.75
2022-12-19T12:54:10.153Z,101529.75
2022-12-19T12:56:37.525Z,101528.06
2022-12-19T12:59:19.942Z,101521.13
2022-12-19T13:01:54.839Z,101518.63
2022-12-19T13:04:28.564Z,101516.91
2022-12-19T13:07:16.363Z,101510.97
2022-12-19T13:09:44.026Z,101508.47
2022-12-19T13:12:45.115Z,101492.03
2022-12-19T13:15:27.683Z,101487.66
2022-12-19T13:17:54.965Z,101493.78
2022-12-19T13:20:26.558Z,101498.09
2022-12-19T13:23:01.040Z,101496.34
2022-12-19T13:25:33.871Z,101482.59
2022-12-19T13:28:04.196Z,101504.34
2022-12-19T13:30:50.093Z,101478.34
2022-12-19T13:33:22.611Z,101485.31
2022-12-19T13:37:55.661Z,101481.91
2022-12-19T13:39:58.315Z,101496.56
2022-12-19T13:42:17.571Z,101480.19
2022-12-19T13:44:44.833Z,101459.47
2022-12-19T13:47:15.653Z,101482.88
2022-12-19T13:49:54.676Z,101478.50
2022-12-19T13:52:22.908Z,101482.88
2022-12-19T13:54:52.256Z,101482.06
2022-12-19T13:57:24.022Z,101475.09
2022-12-19T14:00:00.089Z,101479.41
2022-12-19T14:02:45.073Z,101471.66
2022-12-19T14:05:36.030Z,101474.28
2022-12-19T14:08:19.037Z,101463.94
2022-12-19T14:11:41.528Z,101470.91
2022-12-19T14:14:17.487Z,101457.06
2022-12-19T14:16:47.968Z,101458.84
2022-12-19T14:19:25.993Z,101460.63
2022-12-19T14:22:03.939Z,101456.38
2022-12-19T14:24:40.223Z,101458.16
2022-12-19T14:28:18.107Z,101455.47
2022-12-19T14:30:30.271Z,101452.00
2022-12-19T14:33:44.185Z,101458.94
2022-12-19T14:36:12.554Z,101449.50
2022-12-19T14:39:22.661Z,101465.09
2022-12-19T14:41:48.505Z,101454.69
2022-12-19T14:52:35.957Z,101452.09
2022-12-19T14:53:36.595Z,101454.72
2022-12-19T14:54:23.815Z,101451.28
2022-12-19T14:54:52.804Z,101450.44
2022-12-19T14:59:31.649Z,101452.28
2022-12-19T15:02:07.373Z,101459.31
2022-12-19T15:04:50.653Z,101454.13
2022-12-19T15:07:26.432Z,101445.50
2022-12-19T15:11:04.726Z,101435.09
2022-12-19T15:14:48.709Z,101432.50
2022-12-19T15:16:07.416Z,101436.00
2022-12-19T15:18:39.588Z,101433.44
2022-12-19T15:21:13.060Z,101432.63
2022-12-19T15:23:40.714Z,101434.34
2022-12-19T15:26:14.295Z,101439.56
2022-12-19T15:28:43.198Z,101437.06
2022-12-19T15:31:34.866Z,101434.50
2022-12-19T15:34:36.744Z,101437.09
2022-12-19T15:37:05.592Z,101432.84
2022-12-19T15:39:33.095Z,101435.44
2022-12-19T15:42:01.035Z,101438.06
2022-12-19T15:44:38.909Z,101430.31
2022-12-19T15:47:13.958Z,101419.09
2022-12-19T15:49:41.451Z,101421.72
2022-12-19T15:52:17.865Z,101419.13
2022-12-19T15:54:50.178Z,101432.94
2022-12-19T15:57:37.782Z,101419.16
2022-12-19T16:00:19.614Z,101418.31
2022-12-19T16:03:22.665Z,101420.06
2022-12-19T16:05:37.506Z,101412.25
2022-12-19T16:08:18.097Z,101402.75
2022-12-19T16:10:48.121Z,101404.59
2022-12-19T16:13:21.198Z,101412.38
2022-12-19T16:15:52.515Z,101413.22
2022-12-19T16:18:19.941Z,101411.47
2022-12-19T16:20:48.250Z,101410.66
2022-12-19T16:23:16.234Z,101408.97
2022-12-19T16:25:47.925Z,101414.22
2022-12-19T16:28:31.013Z,101402.09
2022-12-19T16:30:59.518Z,101409.00
2022-12-19T16:33:29.019Z,101394.34
2022-12-19T16:36:06.004Z,101404.66
2022-12-19T16:38:34.573Z,101396.88
2022-12-19T16:41:02.054Z,101413.41
2022-12-19T16:43:36.117Z,101404.84
2022-12-19T16:46:06.002Z,101393.50
2022-12-19T16:48:36.001Z,101400.44
2022-12-19T16:51:03.643Z,101390.91
2022-12-19T16:53:31.149Z,101393.53
2022-12-19T16:56:00.825Z,101396.19
2022-12-19T16:58:29.488Z,101404.88
2022-12-19T17:00:57.057Z,101397.06
2022-12-19T17:03:44.144Z,101399.66
2022-12-19T17:06:16.885Z,101399.69
2022-12-19T17:08:45.226Z,101398.81
2022-12-19T17:11:21.431Z,101384.94
2022-12-19T17:13:50.873Z,101388.47
2022-12-19T17:16:18.055Z,101384.97
2022-12-19T17:18:46.043Z,101384.97
2022-12-19T17:21:22.169Z,101374.59
2022-12-19T17:23:50.304Z,101391.97
2022-12-19T17:26:18.377Z,101388.50
2022-12-19T17:28:48.758Z,101383.31
2022-12-19T17:31:28.477Z,101396.31
2022-12-19T17:33:57.714Z,101393.75
2022-12-19T17:36:32.737Z,101393.75
2022-12-19T17:39:02.301Z,101379.88
2022-12-19T17:41:30.493Z,101386.84
2022-12-19T17:43:58.053Z,101375.56
2022-12-19T17:46:26.065Z,101388.56
2022-12-19T17:48:53.882Z,101382.53
2022-12-19T17:51:23.162Z,101373.84
2022-12-19T17:53:51.209Z,101386.00
2022-12-19T17:56:20.518Z,101379.97
2022-12-19T17:58:48.658Z,101371.28
2022-12-19T18:01:21.130Z,101392.16
2022-12-19T18:03:52.655Z,101384.31
2022-12-19T18:06:19.989Z,101375.63
2022-12-19T18:08:48.735Z,101381.69
2022-12-19T18:11:22.384Z,101385.19
2022-12-19T18:13:49.593Z,101382.63
2022-12-19T18:16:26.514Z,101375.69
2022-12-19T18:18:54.057Z,101374.00
2022-12-19T18:21:24.797Z,101376.59
2022-12-19T18:23:52.376Z,101380.06
2022-12-19T18:26:19.788Z,101380.06
2022-12-19T18:28:47.171Z,101380.09
2022-12-19T18:31:17.523Z,101372.25
2022-12-19T18:33:46.842Z,101369.66
2022-12-19T18:36:20.436Z,101374.00
2022-12-19T18:38:48.743Z,101372.25
2022-12-19T18:41:17.350Z,101380.94
2022-12-19T18:43:45.009Z,101374.03
2022-12-19T18:46:16.980Z,101374.00
2022-12-19T18:48:45.295Z,101373.16
2022-12-19T18:51:17.916Z,101367.97
2022-12-19T18:53:46.500Z,101365.34
2022-12-19T18:56:13.852Z,101366.22
2022-12-19T18:58:41.458Z,101372.31
2022-12-19T19:01:15.432Z,101367.09
2022-12-19T19:03:53.441Z,101361.88
2022-12-19T19:06:23.291Z,101357.53
2022-12-19T19:08:52.073Z,101354.09
2022-12-19T19:11:23.570Z,101348.06
2022-12-19T19:13:51.690Z,101362.78
2022-12-19T19:16:24.801Z,101359.28
2022-12-19T19:18:55.157Z,101346.28
2022-12-19T19:21:29.040Z,101341.06
2022-12-19T19:24:12.500Z,101329.78
2022-12-19T19:26:39.742Z,101329.81
2022-12-19T19:29:07.041Z,101340.19
2022-12-19T19:31:37.397Z,101345.41
2022-12-19T19:34:27.692Z,101339.34
2022-12-19T19:36:56.306Z,101334.16
2022-12-19T19:39:24.641Z,101332.41
2022-12-19T19:41:52.078Z,101335.00
2022-12-19T19:44:19.388Z,101331.56
2022-12-19T19:46:47.081Z,101339.34
2022-12-19T19:49:15.347Z,101338.50
2022-12-19T19:51:42.629Z,101348.03
2022-12-19T19:54:09.968Z,101338.47
2022-12-19T19:56:37.377Z,101334.16
2022-12-19T19:59:05.020Z,101343.69
2022-12-19T20:01:32.879Z,101328.94
2022-12-19T20:04:00.274Z,101327.19
2022-12-19T20:06:27.831Z,101328.06
2022-12-19T20:08:55.307Z,101324.59
2022-12-19T20:11:22.706Z,101333.25
2022-12-19T20:13:53.154Z,101318.50
2022-12-19T20:16:20.652Z,101323.72
2022-12-19T20:18:50.077Z,101314.16
2022-12-19T20:21:20.474Z,101322.81
2022-12-19T20:23:48.195Z,101317.66
2022-12-19T20:26:17.027Z,101324.56
2022-12-19T20:28:50.077Z,101313.31
2022-12-19T20:31:32.676Z,101326.28
2022-12-19T20:34:00.602Z,101319.34
2022-12-19T20:36:30.551Z,101309.81
2022-12-19T20:38:57.952Z,101306.34
2022-12-19T20:41:25.287Z,101304.59
2022-12-19T20:43:53.314Z,101314.13
2022-12-19T20:46:21.554Z,101311.53
2022-12-19T20:48:55.424Z,101309.78
2022-12-19T20:51:26.073Z,101312.38
2022-12-19T20:53:56.144Z,101313.25
2022-12-19T20:56:23.482Z,101315.84
2022-12-19T20:58:54.425Z,101307.16
2022-12-19T21:01:29.323Z,101314.09
2022-12-19T21:03:59.919Z,101320.13
2022-12-19T21:06:30.350Z,101314.94
2022-12-19T21:09:01.533Z,101314.06
2022-12-19T21:11:29.545Z,101321.88
2022-12-19T21:14:02.393Z,101320.97
2022-12-19T21:16:30.282Z,101330.56
2022-12-19T21:18:59.582Z,101334.00
2022-12-19T21:21:28.355Z,101330.50
2022-12-19T21:24:03.123Z,101323.59
2022-12-19T21:26:31.980Z,101318.41
2022-12-19T21:28:59.708Z,101307.13
2022-12-19T21:31:29.302Z,101313.19
2022-12-19T21:34:00.844Z,101302.72
2022-12-19T21:36:28.942Z,101306.19
2022-12-19T21:38:58.553Z,101313.13
2022-12-19T21:41:26.110Z,101329.63
2022-12-19T21:43:55.105Z,101341.84
2022-12-19T21:46:27.518Z,101328.84
2022-12-19T21:48:56.696Z,101328.84
2022-12-19T21:51:28.741Z,101314.13
2022-12-19T21:53:57.999Z,101314.94
2022-12-19T21:56:30.621Z,101321.91
2022-12-19T21:59:01.861Z,101307.19
2022-12-19T22:01:29.799Z,101303.72
2022-12-19T22:04:02.481Z,101302.84
2022-12-19T22:06:32.067Z,101311.50
2022-12-19T22:09:00.351Z,101318.41
2022-12-19T22:11:30.631Z,101308.06
2022-12-19T22:14:00.257Z,101298.53
2022-12-19T22:16:28.687Z,101294.19
2022-12-19T22:18:56.560Z,101300.25
2022-12-19T22:21:24.429Z,101293.31
2022-12-19T22:23:55.846Z,101306.31
2022-12-19T22:26:24.061Z,101308.09
2022-12-19T22:28:53.435Z,101302.00
2022-12-19T22:31:22.541Z,101300.31
2022-12-19T22:33:52.478Z,101298.59
2022-12-19T22:36:27.364Z,101286.41
2022-12-19T22:38:56.317Z,101293.38
2022-12-19T22:41:23.594Z,101278.59
2022-12-19T22:43:51.016Z,101282.97
2022-12-19T22:46:21.147Z,101284.69
2022-12-19T22:48:49.833Z,101276.88
2022-12-19T22:51:18.256Z,101277.75
2022-12-19T22:53:46.263Z,101272.53
2022-12-19T22:56:16.144Z,101281.19
2022-12-19T22:58:45.634Z,101272.53
2022-12-19T23:01:35.003Z,101287.28
2022-12-19T23:04:02.939Z,101276.88
2022-12-19T23:06:33.590Z,101271.66
2022-12-19T23:09:01.527Z,101279.47
2022-12-19T23:11:32.681Z,101276.03
2022-12-19T23:14:00.576Z,101281.22
2022-12-19T23:16:27.906Z,101280.38
2022-12-19T23:18:55.186Z,101279.50
2022-12-19T23:21:23.931Z,101279.50
2022-12-19T23:23:52.794Z,101281.22
2022-12-19T23:26:23.001Z,101283.84
2022-12-19T23:29:01.749Z,101282.97
2022-12-19T23:31:29.727Z,101277.75
2022-12-19T23:33:58.128Z,101272.53
2022-12-19T23:36:52.661Z,101272.53
2022-12-19T23:39:13.221Z,101280.34
2022-12-19T23:41:40.839Z,101276.84
2022-12-19T23:44:09.239Z,101285.56
2022-12-19T23:46:36.911Z,101276.88
2022-12-19T23:49:04.546Z,101273.41
2022-12-19T23:51:32.132Z,101265.59
2022-12-19T23:53:59.322Z,101274.28
2022-12-19T23:56:30.291Z,101280.34
2022-12-19T23:58:57.746Z,101269.91
